Time;durP1;ratioP1;P1;durP2;ratioP2;P2;SDS_P1;SDS_P2;PMS_P1;PMS_P2;Temp;Humidity;BMP_temperature;BMP_pressure;BME280_temperature;BME280_humidity;BME280_pressure;Samples;Min_cycle;Max_cycle;Signal;HPM_P1;HPM_P2
2024/01/25 00:00:15;;;;;;;19.83;4.30;;;;;;;7.30;100.00;101230.56;5024118;28;20182;-65
2024/01/25 00:02:40;;;;;;;19.97;4.17;;;;;;;7.24;100.00;101228.16;5050937;28;20189;-62
2024/01/25 00:05:06;;;;;;;18.93;4.60;;;;;;;7.08;100.00;101231.06;5027401;28;20582;-62
2024/01/25 00:07:31;;;;;;;15.90;3.47;;;;;;;7.12;100.00;101226.72;5029705;28;20228;-62
2024/01/25 00:09:57;;;;;;;13.87;3.50;;;;;;;7.17;100.00;101226.59;5031432;28;20664;-62
2024/01/25 00:12:23;;;;;;;20.13;4.03;;;;;;;7.26;100.00;101219.56;5052661;28;20236;-63
2024/01/25 00:14:48;;;;;;;23.50;4.70;;;;;;;7.17;100.00;101230.00;5029562;28;20182;-63
2024/01/25 00:17:14;;;;;;;19.90;4.37;;;;;;;7.22;100.00;101227.34;5040340;28;20640;-61
2024/01/25 00:19:40;;;;;;;18.43;4.10;;;;;;;7.12;100.00;101229.28;5030993;28;20186;-62
2024/01/25 00:22:06;;;;;;;15.47;3.33;;;;;;;7.11;100.00;101228.41;5037597;28;20239;-61
2024/01/25 00:24:32;;;;;;;14.07;4.20;;;;;;;7.11;100.00;101228.41;5036966;28;20226;-62
2024/01/25 00:26:57;;;;;;;17.27;4.27;;;;;;;7.21;100.00;101229.06;5030721;28;20300;-64
2024/01/25 00:29:23;;;;;;;16.50;4.30;;;;;;;7.19;100.00;101235.09;5031632;28;20186;-62
2024/01/25 00:31:48;;;;;;;15.10;3.63;;;;;;;7.19;100.00;101232.53;5014939;28;20366;-62
2024/01/25 00:34:14;;;;;;;21.60;4.60;;;;;;;7.11;100.00;101228.41;5039021;28;20247;-63
2024/01/25 00:36:39;;;;;;;12.33;4.30;;;;;;;7.11;100.00;101230.97;5020518;28;20178;-63
2024/01/25 00:39:05;;;;;;;20.37;5.57;;;;;;;7.08;100.00;101228.50;5034226;28;20182;-63
2024/01/25 00:41:32;;;;;;;16.53;4.20;;;;;;;7.08;100.00;101223.38;5047789;28;20221;-63
2024/01/25 00:43:57;;;;;;;21.93;4.60;;;;;;;7.05;100.00;101225.16;5037365;28;20268;-63
2024/01/25 00:46:23;;;;;;;17.53;4.37;;;;;;;6.94;100.00;101225.38;5034425;28;20230;-64
2024/01/25 00:48:48;;;;;;;21.77;4.73;;;;;;;7.03;100.00;101226.91;5037632;28;20727;-63
2024/01/25 00:51:20;;;;;;;18.67;4.17;;;;;;;6.94;100.00;101233.88;5038707;28;20228;-63
2024/01/25 00:53:46;;;;;;;17.07;4.67;;;;;;;6.93;100.00;101223.69;5038458;28;20277;-62
2024/01/25 00:56:12;;;;;;;23.63;4.47;;;;;;;6.84;100.00;101211.94;5066718;28;20601;-63
2024/01/25 00:58:37;;;;;;;21.27;4.10;;;;;;;6.84;100.00;101217.06;5034646;28;20955;-62
2024/01/25 01:01:03;;;;;;;14.97;3.67;;;;;;;6.90;100.00;101227.16;5034133;28;20311;-64
2024/01/25 01:03:28;;;;;;;20.40;4.23;;;;;;;6.85;100.00;101215.38;5042568;28;20662;-63
2024/01/25 01:05:54;;;;;;;15.90;4.10;;;;;;;6.97;100.00;101214.25;5034126;28;20194;-63
2024/01/25 01:08:19;;;;;;;24.07;5.40;;;;;;;7.03;100.00;101221.78;5034500;28;20174;-62
2024/01/25 01:10:45;;;;;;;17.37;5.47;;;;;;;7.09;100.00;101224.22;5034892;28;20258;-62
2024/01/25 01:13:10;;;;;;;20.13;4.83;;;;;;;7.22;100.00;101225.63;5054466;28;20250;-62
2024/01/25 01:15:35;;;;;;;17.80;4.27;;;;;;;7.22;100.00;101230.75;5034074;28;20175;-62
2024/01/25 01:18:00;;;;;;;20.07;4.67;;;;;;;7.19;100.00;101233.34;5033101;28;20544;-62
2024/01/25 01:20:26;;;;;;;18.13;3.83;;;;;;;7.21;100.00;101236.72;5030295;28;20220;-63
2024/01/25 01:22:51;;;;;;;17.33;4.57;;;;;;;7.26;100.00;101244.31;5058937;28;20190;-62
2024/01/25 01:25:17;;;;;;;18.10;4.03;;;;;;;7.26;100.00;101246.88;5033924;28;20500;-62
2024/01/25 01:27:42;;;;;;;18.93;4.03;;;;;;;7.32;100.00;101256.13;5033984;28;20659;-62
2024/01/25 01:30:08;;;;;;;23.43;4.00;;;;;;;7.18;100.00;101248.75;5024850;28;20189;-63
2024/01/25 01:32:33;;;;;;;16.77;4.63;;;;;;;7.22;100.00;101258.06;5048026;28;20651;-63
2024/01/25 01:34:58;;;;;;;23.53;4.47;;;;;;;7.21;100.00;101251.25;5033514;28;20186;-63
2024/01/25 01:37:24;;;;;;;20.77;4.97;;;;;;;7.09;100.00;101245.53;5039278;28;20240;-62
2024/01/25 01:39:49;;;;;;;13.40;3.77;;;;;;;7.12;100.00;101244.63;5065650;28;20305;-63
2024/01/25 01:42:14;;;;;;;23.27;4.93;;;;;;;7.11;100.00;101255.72;5053992;28;20223;-62
2024/01/25 01:44:40;;;;;;;16.90;4.00;;;;;;;7.17;100.00;101258.16;5033447;28;20564;-63
2024/01/25 01:47:05;;;;;;;21.50;5.10;;;;;;;7.08;100.00;101269.44;5033075;28;20280;-62
2024/01/25 01:49:30;;;;;;;17.67;5.00;;;;;;;6.94;100.00;101272.25;5042757;28;20198;-62
2024/01/25 01:51:56;;;;;;;17.30;3.97;;;;;;;6.90;100.00;101268.09;5053076;28;20225;-62
2024/01/25 01:54:21;;;;;;;17.63;4.37;;;;;;;6.85;100.00;101267.34;5035336;28;20630;-62
2024/01/25 01:56:47;;;;;;;14.17;4.37;;;;;;;6.87;100.00;101259.63;5033018;28;20553;-62
2024/01/25 01:59:12;;;;;;;16.27;4.10;;;;;;;6.83;100.00;101269.09;5065616;28;20186;-62
2024/01/25 02:01:38;;;;;;;14.57;3.53;;;;;;;6.78;100.00;101271.75;5048050;28;20248;-63
2024/01/25 02:04:04;;;;;;;17.17;4.53;;;;;;;6.68;100.00;101265.13;5027401;28;20202;-63
2024/01/25 02:06:30;;;;;;;17.40;4.07;;;;;;;6.74;100.00;101270.09;5064407;28;20248;-63
2024/01/25 02:08:58;;;;;;;17.67;4.07;;;;;;;6.76;100.00;101265.81;5020874;28;20190;-62
2024/01/25 02:11:26;;;;;;;22.27;4.87;;;;;;;6.70;100.00;101283.84;5035023;28;20231;-63
2024/01/25 02:13:52;;;;;;;16.67;4.20;;;;;;;6.76;100.00;101268.38;5036746;28;20210;-64
2024/01/25 02:16:18;;;;;;;22.90;4.80;;;;;;;6.76;100.00;101272.63;5033266;28;20213;-62
2024/01/25 02:18:44;;;;;;;15.80;4.27;;;;;;;6.78;100.00;101258.97;5031756;28;20232;-63
2024/01/25 02:21:09;;;;;;;24.17;4.77;;;;;;;6.90;100.00;101269.81;5033970;28;20216;-62
2024/01/25 02:23:34;;;;;;;17.43;4.50;;;;;;;7.04;100.00;101267.78;5046788;28;20657;-63
2024/01/25 02:25:59;;;;;;;13.90;4.43;;;;;;;7.05;100.00;101269.47;5032770;28;20182;-62
2024/01/25 02:28:25;;;;;;;20.97;5.13;;;;;;;7.01;100.00;101270.44;5032867;28;20174;-62
2024/01/25 02:30:50;;;;;;;17.63;4.40;;;;;;;7.01;100.00;101282.38;5035245;28;20617;-63
2024/01/25 02:33:15;;;;;;;20.17;5.40;;;;;;;6.90;100.00;101277.50;5040690;28;20193;-63
2024/01/25 02:35:41;;;;;;;18.20;3.90;;;;;;;6.98;100.00;101274.78;5032692;28;20183;-63
2024/01/25 02:38:06;;;;;;;23.73;6.07;;;;;;;7.04;100.00;101275.47;5032789;28;20182;-62
2024/01/25 02:40:31;;;;;;;20.17;5.03;;;;;;;7.04;100.00;101284.88;5030734;28;20319;-62
2024/01/25 02:42:57;;;;;;;16.73;4.57;;;;;;;7.02;100.00;101284.06;5055564;28;20558;-62
2024/01/25 02:45:23;;;;;;;20.67;5.00;;;;;;;7.00;100.00;101266.19;5032600;28;20194;-62
2024/01/25 02:47:48;;;;;;;16.33;4.43;;;;;;;7.11;100.00;101271.09;5031155;28;20209;-63
2024/01/25 02:50:14;;;;;;;19.60;4.57;;;;;;;7.18;100.00;101279.47;5032597;28;20224;-62
2024/01/25 02:52:39;;;;;;;20.00;3.80;;;;;;;7.12;100.00;101270.22;5045133;28;20189;-62
2024/01/25 02:55:05;;;;;;;21.63;5.73;;;;;;;7.07;100.00;101261.78;5032096;28;20193;-62
2024/01/25 02:57:31;;;;;;;22.47;4.37;;;;;;;7.09;100.00;101267.72;5030005;28;20174;-62
2024/01/25 02:59:56;;;;;;;21.13;5.17;;;;;;;6.94;100.00;101264.59;5032436;28;20269;-62
2024/01/25 03:02:22;;;;;;;11.43;3.73;;;;;;;7.02;100.00;101264.44;5037575;28;20229;-62
2024/01/25 03:04:48;;;;;;;20.83;5.67;;;;;;;6.89;100.00;101274.06;5018780;28;20229;-62
2024/01/25 03:07:13;;;;;;;18.90;4.63;;;;;;;6.85;100.00;101274.19;5030852;28;20622;-63
2024/01/25 03:09:38;;;;;;;23.27;4.17;;;;;;;6.89;100.00;101276.63;5032031;28;20629;-63
2024/01/25 03:12:04;;;;;;;21.00;4.17;;;;;;;6.90;100.00;101273.22;5053535;28;20221;-62
2024/01/25 03:14:29;;;;;;;19.23;3.93;;;;;;;6.80;100.00;101276.84;5031929;28;20235;-62
2024/01/25 03:16:54;;;;;;;14.57;4.50;;;;;;;6.87;100.00;101274.97;5031834;28;20637;-62
2024/01/25 03:19:20;;;;;;;22.83;4.83;;;;;;;6.91;100.00;101271.50;5031942;28;20190;-63
2024/01/25 03:21:45;;;;;;;23.40;4.33;;;;;;;6.96;100.00;101279.94;5048600;28;20652;-63
2024/01/25 03:24:10;;;;;;;15.83;4.27;;;;;;;7.02;100.00;101277.25;5036398;28;20201;-62
2024/01/25 03:26:36;;;;;;;17.37;4.87;;;;;;;7.09;100.00;101276.25;5031877;28;20297;-63
2024/01/25 03:29:01;;;;;;;25.03;4.20;;;;;;;7.17;100.00;101285.44;5030174;28;20934;-62
2024/01/25 03:31:26;;;;;;;20.87;4.30;;;;;;;7.35;100.00;101287.59;5043479;28;20266;-62
2024/01/25 03:33:52;;;;;;;23.83;5.30;;;;;;;7.46;100.00;101284.00;5041421;28;20208;-62
2024/01/25 03:36:17;;;;;;;16.47;4.10;;;;;;;7.49;100.00;101289.03;5032037;28;20193;-63
2024/01/25 03:42:04;;;;;;;25.07;4.47;;;;;;;7.70;100.00;101300.50;5051605;28;20315;-62
2024/01/25 03:44:29;;;;;;;21.03;4.37;;;;;;;7.71;100.00;101305.56;5031663;28;20209;-63
2024/01/25 03:46:55;;;;;;;32.60;5.20;;;;;;;7.74;100.00;101304.69;5031008;28;20228;-63
2024/01/25 03:49:22;;;;;;;23.93;4.23;;;;;;;7.79;100.00;101307.97;5039062;28;20209;-63
2024/01/25 03:51:48;;;;;;;16.87;4.13;;;;;;;7.65;100.00;101312.56;5039355;28;20225;-63
2024/01/25 03:54:13;;;;;;;25.40;4.53;;;;;;;7.74;100.00;101310.63;5033826;28;20352;-65
2024/01/25 03:56:38;;;;;;;20.27;5.70;;;;;;;7.73;100.00;101320.94;5031391;28;20220;-63
2024/01/25 03:59:03;;;;;;;14.83;3.93;;;;;;;7.68;100.00;101317.63;5031270;28;20178;-63
2024/01/25 04:01:29;;;;;;;19.13;4.17;;;;;;;7.78;100.00;101319.09;5043838;28;20298;-64
2024/01/25 04:03:54;;;;;;;22.37;5.00;;;;;;;7.84;100.00;101339.44;5039258;28;20198;-63
2024/01/25 04:06:19;;;;;;;19.57;4.53;;;;;;;7.89;100.00;101331.66;5030817;28;20178;-63
2024/01/25 04:08:45;;;;;;;19.27;4.60;;;;;;;7.92;100.00;101334.13;5031208;28;20553;-62
2024/01/25 04:11:10;;;;;;;18.57;4.73;;;;;;;7.80;100.00;101325.03;5038998;28;20246;-63
2024/01/25 04:13:35;;;;;;;20.33;4.47;;;;;;;7.78;100.00;101331.91;5044670;28;20186;-63
2024/01/25 04:16:01;;;;;;;21.00;4.57;;;;;;;7.83;100.00;101337.75;5017411;28;20178;-62
2024/01/25 04:18:26;;;;;;;21.23;5.00;;;;;;;7.75;100.00;101337.09;5031114;28;20211;-63
2024/01/25 04:20:51;;;;;;;25.10;4.33;;;;;;;7.76;100.00;101343.91;5028929;28;20246;-63
2024/01/25 04:23:17;;;;;;;15.43;5.00;;;;;;;7.69;100.00;101339.78;5049330;28;20210;-62
2024/01/25 04:25:42;;;;;;;17.70;4.77;;;;;;;7.71;100.00;101341.44;5031095;28;20717;-62
2024/01/25 04:28:07;;;;;;;22.33;4.50;;;;;;;7.71;100.00;101338.03;5031061;28;20189;-63
2024/01/25 04:30:33;;;;;;;23.40;5.43;;;;;;;7.79;100.00;101340.41;5006243;28;20243;-64
2024/01/25 04:32:59;;;;;;;18.53;4.90;;;;;;;7.72;100.00;101337.16;5054199;28;20182;-63
2024/01/25 04:35:24;;;;;;;18.27;4.00;;;;;;;7.55;100.00;101334.97;5030613;28;20495;-62
2024/01/25 04:37:49;;;;;;;19.80;4.60;;;;;;;7.48;100.00;101329.16;5031016;28;20269;-62
2024/01/25 04:40:14;;;;;;;19.10;4.37;;;;;;;7.37;100.00;101333.69;5024048;28;20578;-62
2024/01/25 04:42:40;;;;;;;16.33;4.40;;;;;;;7.34;100.00;101349.91;5043932;28;20174;-63
2024/01/25 04:45:06;;;;;;;18.67;5.17;;;;;;;7.30;100.00;101340.63;5030277;28;20209;-62
2024/01/25 04:47:31;;;;;;;22.23;5.53;;;;;;;7.31;100.00;101344.03;5062754;28;20222;-62
2024/01/25 04:49:56;;;;;;;12.03;4.07;;;;;;;7.16;100.00;101353.72;5040243;28;20700;-63
2024/01/25 04:52:22;;;;;;;22.40;5.10;;;;;;;7.13;100.00;101340.13;5052264;28;20246;-63
2024/01/25 04:54:47;;;;;;;18.53;4.73;;;;;;;7.09;100.00;101341.91;5029100;28;20198;-62
2024/01/25 04:57:12;;;;;;;27.17;5.40;;;;;;;7.07;100.00;101347.06;5030895;28;20653;-62
2024/01/25 04:59:37;;;;;;;16.93;5.00;;;;;;;7.00;100.00;101348.06;5030632;28;20182;-62
2024/01/25 05:02:03;;;;;;;25.67;4.60;;;;;;;6.87;100.00;101356.84;5051985;28;20576;-63
2024/01/25 05:04:29;;;;;;;20.30;4.70;;;;;;;6.68;100.00;101362.28;5030308;28;20272;-63
2024/01/25 05:06:54;;;;;;;18.83;4.57;;;;;;;6.62;100.00;101375.19;5030412;28;20664;-63
2024/01/25 05:09:20;;;;;;;16.37;5.57;;;;;;;6.66;100.00;101393.88;5062672;28;20193;-62
2024/01/25 05:11:45;;;;;;;22.40;5.93;;;;;;;6.72;100.00;101398.88;5047605;28;20615;-62
2024/01/25 05:14:10;;;;;;;17.17;5.57;;;;;;;6.77;100.00;101402.19;5034836;28;20186;-62
2024/01/25 05:16:36;;;;;;;21.50;5.60;;;;;;;6.73;100.00;101403.97;5031808;28;20177;-62
2024/01/25 05:19:01;;;;;;;17.10;4.37;;;;;;;6.77;100.00;101414.97;5033812;28;20280;-62
2024/01/25 05:21:26;;;;;;;19.97;4.53;;;;;;;6.88;100.00;101413.06;5045901;28;20224;-62
2024/01/25 05:23:52;;;;;;;15.20;4.03;;;;;;;6.95;100.00;101414.66;5043447;28;20212;-62
2024/01/25 05:26:17;;;;;;;17.20;4.13;;;;;;;6.95;100.00;101419.75;5034282;28;20216;-62
2024/01/25 05:28:43;;;;;;;20.10;4.50;;;;;;;6.94;100.00;101425.75;5033752;28;20244;-62
2024/01/25 05:31:12;;;;;;;30.47;5.60;;;;;;;6.83;100.00;101414.88;5038669;28;20370;-64
2024/01/25 05:33:39;;;;;;;16.63;4.37;;;;;;;6.68;100.00;101422.81;5042070;28;20509;-63
2024/01/25 05:36:05;;;;;;;23.27;5.13;;;;;;;6.61;100.00;101422.06;5032418;28;20269;-63
2024/01/25 05:38:31;;;;;;;24.80;3.60;;;;;;;6.65;100.00;101412.63;5032430;28;20186;-62
2024/01/25 05:40:56;;;;;;;24.63;5.10;;;;;;;6.64;100.00;101419.47;5038269;28;20289;-61
2024/01/25 05:43:21;;;;;;;20.20;4.23;;;;;;;6.46;100.00;101415.50;5050720;28;20206;-61
2024/01/25 05:45:47;;;;;;;16.53;4.23;;;;;;;6.58;100.00;101414.47;5033709;28;20287;-61
2024/01/25 05:48:12;;;;;;;24.63;5.20;;;;;;;6.51;100.00;101423.97;5033490;28;20174;-62
2024/01/25 05:50:37;;;;;;;19.13;4.23;;;;;;;6.51;100.00;101425.66;5042767;28;20248;-62
2024/01/25 05:53:02;;;;;;;20.07;4.73;;;;;;;6.46;100.00;101424.03;5055595;28;20558;-62
2024/01/25 05:55:28;;;;;;;26.40;5.10;;;;;;;6.54;100.00;101423.06;5033653;28;20196;-62
2024/01/25 05:57:53;;;;;;;19.53;4.53;;;;;;;6.50;100.00;101418.84;5033681;28;20344;-63
2024/01/25 06:00:19;;;;;;;27.03;5.87;;;;;;;6.45;100.00;101421.50;5027741;28;20194;-63
2024/01/25 06:02:44;;;;;;;16.33;5.27;;;;;;;6.35;100.00;101419.94;5045585;28;20201;-63
2024/01/25 06:05:10;;;;;;;16.83;4.53;;;;;;;6.27;100.00;101423.44;5033428;28;20201;-62
2024/01/25 06:07:35;;;;;;;21.60;4.30;;;;;;;6.25;100.00;101422.66;5033303;28;20184;-62
2024/01/25 06:10:00;;;;;;;17.20;4.63;;;;;;;6.05;100.00;101422.94;5033507;28;20174;-62
2024/01/25 06:12:26;;;;;;;19.40;5.97;;;;;;;6.02;100.00;101417.88;5054840;28;20241;-62
2024/01/25 06:14:52;;;;;;;24.80;5.43;;;;;;;5.87;100.00;101423.19;5033270;28;20189;-62
2024/01/25 06:17:17;;;;;;;17.00;4.87;;;;;;;5.76;100.00;101428.41;5031790;28;20539;-62
2024/01/25 06:19:43;;;;;;;25.63;5.77;;;;;;;5.84;100.00;101421.47;5031845;28;20186;-62
2024/01/25 06:22:08;;;;;;;24.03;5.63;;;;;;;5.77;100.00;101417.34;5054427;28;20777;-62
2024/01/25 06:24:33;;;;;;;20.77;5.30;;;;;;;5.63;100.00;101418.38;5033211;28;20217;-63
2024/01/25 06:26:58;;;;;;;17.50;4.70;;;;;;;5.70;100.00;101413.19;5029975;28;20691;-63
2024/01/25 06:29:24;;;;;;;33.50;6.50;;;;;;;5.64;100.00;101422.63;5032890;28;20187;-65
2024/01/25 06:31:49;;;;;;;24.33;6.73;;;;;;;5.65;100.00;101418.34;5038760;28;20223;-64
2024/01/25 06:34:14;;;;;;;23.10;5.80;;;;;;;5.64;100.00;101434.53;5032539;28;20671;-63
2024/01/25 06:36:40;;;;;;;17.50;4.67;;;;;;;5.60;100.00;101436.25;5032582;28;20263;-64
2024/01/25 06:39:06;;;;;;;18.77;4.80;;;;;;;5.53;100.00;101438.91;5032750;28;20640;-63
2024/01/25 06:41:31;;;;;;;18.40;5.10;;;;;;;5.45;100.00;101439.00;5035878;28;20307;-65
2024/01/25 06:43:57;;;;;;;27.90;5.57;;;;;;;5.45;100.00;101432.19;5040613;28;20347;-63
2024/01/25 06:46:22;;;;;;;19.40;5.53;;;;;;;5.52;100.00;101425.31;5032424;28;20311;-62
2024/01/25 06:48:49;;;;;;;18.33;4.93;;;;;;;5.48;100.00;101413.44;5035175;28;20240;-61
2024/01/25 06:51:14;;;;;;;18.60;4.90;;;;;;;5.46;100.00;101412.63;5056688;28;20241;-63
2024/01/25 06:53:39;;;;;;;20.03;5.43;;;;;;;5.40;100.00;101412.72;5038178;28;20205;-63
2024/01/25 06:56:05;;;;;;;28.53;5.03;;;;;;;5.40;100.00;101418.66;5030692;28;20267;-62
2024/01/25 06:58:30;;;;;;;21.30;6.00;;;;;;;5.26;100.00;101415.41;5032346;28;20250;-62
2024/01/25 07:00:55;;;;;;;30.60;5.70;;;;;;;5.23;100.00;101415.44;5035933;28;20534;-62
2024/01/25 07:03:21;;;;;;;24.37;6.03;;;;;;;5.20;100.00;101423.97;5048753;28;20345;-62
2024/01/25 07:05:46;;;;;;;26.50;4.80;;;;;;;5.26;100.00;101435.81;5030631;28;20182;-63
2024/01/25 07:08:15;;;;;;;24.47;5.17;;;;;;;5.14;100.00;101439.34;5032180;28;20182;-63
2024/01/25 07:10:41;;;;;;;22.83;5.07;;;;;;;5.25;100.00;101447.72;5028945;28;20673;-63
2024/01/25 07:13:06;;;;;;;22.17;5.47;;;;;;;5.30;100.00;101456.19;5041217;28;20197;-62
2024/01/25 07:15:32;;;;;;;30.07;7.17;;;;;;;5.31;100.00;101460.41;5031677;28;20600;-63
2024/01/25 07:17:57;;;;;;;25.87;6.33;;;;;;;5.40;100.00;101454.38;5031719;28;20208;-63
2024/01/25 07:20:22;;;;;;;21.67;6.70;;;;;;;5.31;100.00;101457.03;5025824;28;20221;-63
2024/01/25 07:22:48;;;;;;;26.97;8.10;;;;;;;5.33;100.00;101455.28;5057622;28;20174;-73
2024/01/25 07:25:13;;;;;;;28.97;8.93;;;;;;;5.35;100.00;101448.47;5032398;28;20272;-71
2024/01/25 07:27:38;;;;;;;34.53;9.80;;;;;;;5.53;100.00;101446.56;5031849;28;20188;-71
2024/01/25 07:30:05;;;;;;;25.90;8.23;;;;;;;5.54;100.00;101444.00;5022055;28;20269;-71
2024/01/25 07:32:32;;;;;;;36.70;8.50;;;;;;;5.62;100.00;101449.88;5046110;28;20217;-70
2024/01/25 07:34:57;;;;;;;41.20;9.00;;;;;;;5.64;100.00;101450.69;5031322;28;20265;-71
2024/01/25 07:37:22;;;;;;;25.77;7.50;;;;;;;5.63;100.00;101450.69;5031445;28;20182;-70
2024/01/25 07:39:48;;;;;;;28.47;9.07;;;;;;;5.68;100.00;101448.97;5030851;28;20645;-71
2024/01/25 07:42:13;;;;;;;33.33;7.83;;;;;;;5.59;100.00;101455.00;5053314;28;20212;-71
2024/01/25 07:44:38;;;;;;;27.27;8.30;;;;;;;5.72;100.00;101450.59;5031230;28;20681;-70
2024/01/25 07:47:04;;;;;;;29.67;8.10;;;;;;;5.85;100.00;101443.59;5031385;28;20229;-70
2024/01/25 07:49:29;;;;;;;28.50;7.73;;;;;;;5.80;100.00;101448.78;5039743;28;20303;-70
2024/01/25 07:51:56;;;;;;;25.37;7.87;;;;;;;5.82;100.00;101444.50;5051205;28;20224;-73
2024/01/25 07:54:22;;;;;;;23.97;7.80;;;;;;;5.86;100.00;101447.84;5031112;28;20191;-71
2024/01/25 07:56:47;;;;;;;23.67;7.33;;;;;;;5.86;100.00;101434.25;5019294;28;20197;-71
2024/01/25 07:59:12;;;;;;;19.67;7.33;;;;;;;5.90;100.00;101436.72;5023984;28;20264;-71
2024/01/25 08:01:38;;;;;;;26.83;7.93;;;;;;;5.95;100.00;101436.66;5045536;28;20255;-70
2024/01/25 08:04:03;;;;;;;34.57;8.57;;;;;;;6.00;100.00;101441.75;5037483;28;20552;-70
2024/01/25 08:06:29;;;;;;;30.00;6.53;;;;;;;6.11;100.00;101443.28;5031246;28;20550;-71
2024/01/25 08:08:54;;;;;;;25.97;8.13;;;;;;;6.25;100.00;101450.75;5063176;28;20185;-71
2024/01/25 08:11:20;;;;;;;27.87;7.67;;;;;;;6.33;100.00;101457.47;5033782;28;20232;-72
2024/01/25 08:13:47;;;;;;;23.97;6.67;;;;;;;6.34;100.00;101454.88;5030980;28;20601;-73
2024/01/25 08:16:13;;;;;;;24.60;7.07;;;;;;;6.35;100.00;101464.25;5062216;28;20213;-70
2024/01/25 08:18:39;;;;;;;27.43;7.43;;;;;;;6.31;100.00;101470.25;5030191;28;20186;-70
2024/01/25 08:21:05;;;;;;;25.47;6.77;;;;;;;6.34;100.00;101477.03;5029565;28;20228;-70
2024/01/25 08:23:30;;;;;;;21.77;6.87;;;;;;;6.44;100.00;101481.97;5045699;28;20215;-71
2024/01/25 08:25:55;;;;;;;22.20;5.40;;;;;;;6.56;100.00;101483.53;5030293;28;20293;-70
2024/01/25 08:28:21;;;;;;;26.43;6.70;;;;;;;6.65;100.00;101479.97;5029604;28;20559;-71
2024/01/25 08:30:47;;;;;;;21.63;5.30;;;;;;;6.88;100.00;101471.91;5007631;28;20234;-71
2024/01/25 08:33:13;;;;;;;27.33;8.27;;;;;;;7.04;100.00;101469.91;5044311;28;20189;-70
2024/01/25 08:35:40;;;;;;;20.53;6.33;;;;;;;7.11;100.00;101468.13;5062712;28;20641;-69
2024/01/25 08:38:06;;;;;;;27.73;5.73;;;;;;;7.13;100.00;101468.91;5028006;28;20178;-72
2024/01/25 08:40:31;;;;;;;23.10;5.60;;;;;;;7.20;100.00;101474.78;5028202;28;20641;-71
2024/01/25 08:42:56;;;;;;;25.73;5.80;;;;;;;7.31;100.00;101472.03;5054007;28;20182;-70
2024/01/25 08:45:22;;;;;;;17.27;5.03;;;;;;;7.50;100.00;101478.44;5030172;28;20252;-71
2024/01/25 08:47:49;;;;;;;21.30;4.87;;;;;;;7.42;100.00;101485.47;5029081;28;20236;-73
2024/01/25 08:50:14;;;;;;;23.07;5.87;;;;;;;7.50;100.00;101485.31;5031878;28;20250;-69
2024/01/25 08:52:40;;;;;;;22.33;4.87;;;;;;;7.59;100.00;101495.34;5047542;28;20357;-70
2024/01/25 08:55:06;;;;;;;26.00;5.83;;;;;;;7.77;100.00;101494.16;5034356;28;20728;-69
2024/01/25 08:57:32;;;;;;;25.30;6.27;;;;;;;7.85;100.00;101492.28;5033487;28;20267;-71
2024/01/25 08:59:58;;;;;;;24.43;5.97;;;;;;;7.90;100.00;101493.03;5034649;28;20178;-71
2024/01/25 09:02:27;;;;;;;22.27;5.20;;;;;;;7.89;100.00;101490.50;5056138;28;20229;-71
2024/01/25 09:04:53;;;;;;;18.33;6.10;;;;;;;7.99;100.00;101481.75;5033115;28;20194;-72
2024/01/25 09:07:19;;;;;;;21.10;5.37;;;;;;;7.99;100.00;101480.88;5033366;28;20189;-70
2024/01/25 09:09:44;;;;;;;22.30;6.33;;;;;;;8.22;100.00;101480.38;5032501;28;20185;-70
2024/01/25 09:12:12;;;;;;;12.80;4.90;;;;;;;8.25;100.00;101482.88;5055618;28;20566;-71
2024/01/25 09:14:38;;;;;;;25.40;6.00;;;;;;;8.37;100.00;101476.63;5032686;28;20185;-71
2024/01/25 09:17:03;;;;;;;18.17;5.17;;;;;;;8.99;100.00;101480.28;5033892;28;20184;-72
2024/01/25 09:19:28;;;;;;;23.50;5.80;;;;;;;10.01;100.00;101485.19;5033906;28;20188;-71
2024/01/25 09:21:55;;;;;;;19.00;5.00;;;;;;;11.50;100.00;101475.16;5052972;28;20304;-71
2024/01/25 09:24:20;;;;;;;23.03;6.27;;;;;;;12.94;100.00;101477.31;5033458;28;20202;-71
2024/01/25 09:26:46;;;;;;;22.17;5.83;;;;;;;13.94;98.50;101474.66;5033863;28;20309;-71
2024/01/25 09:29:11;;;;;;;22.80;5.40;;;;;;;14.09;95.50;101479.13;5032142;28;20182;-71
2024/01/25 09:31:36;;;;;;;17.10;5.93;;;;;;;13.93;95.67;101481.59;5048176;28;20228;-71
2024/01/25 09:34:01;;;;;;;18.20;5.87;;;;;;;13.85;94.62;101492.31;5040820;28;20240;-73
2024/01/25 09:36:27;;;;;;;14.60;4.77;;;;;;;13.66;97.27;101491.47;5032263;28;20205;-72
2024/01/25 09:38:52;;;;;;;18.47;4.73;;;;;;;13.72;97.71;101491.19;5033481;28;20197;-73
2024/01/25 09:41:18;;;;;;;17.40;4.93;;;;;;;13.59;94.32;101496.06;5044110;28;20650;-72
2024/01/25 09:43:43;;;;;;;18.03;5.27;;;;;;;13.56;96.71;101489.28;5037416;28;20557;-72
2024/01/25 09:46:13;;;;;;;17.70;5.27;;;;;;;13.43;96.70;101501.06;5021857;28;20259;-71
2024/01/25 09:48:40;;;;;;;19.43;4.67;;;;;;;13.51;97.03;101500.75;5020947;28;20672;-70
2024/01/25 09:51:06;;;;;;;18.87;5.20;;;;;;;13.87;93.53;101502.56;5046989;28;20244;-71
2024/01/25 09:53:33;;;;;;;15.47;4.87;;;;;;;14.23;89.26;101496.56;5027558;28;20189;-71
2024/01/25 09:56:07;;;;;;;18.60;4.47;;;;;;;14.03;90.22;101500.13;5032925;28;20174;-75
2024/01/25 09:58:40;;;;;;;22.33;6.53;;;;;;;13.98;90.80;101497.72;5032174;28;20316;-70
2024/01/25 10:01:12;;;;;;;19.60;5.27;;;;;;;14.21;87.86;101485.44;5039926;28;20395;-70
2024/01/25 10:03:44;;;;;;;21.07;4.77;;;;;;;13.64;91.27;101504.44;5034491;28;20201;-71
2024/01/25 10:06:10;;;;;;;15.53;4.70;;;;;;;13.16;93.22;101501.34;5031813;28;20688;-69
2024/01/25 10:08:36;;;;;;;18.07;5.30;;;;;;;14.24;91.16;101500.00;5033234;28;20303;-70
2024/01/25 10:11:02;;;;;;;17.97;4.87;;;;;;;14.03;89.17;101498.34;5038475;28;20296;-70
2024/01/25 10:13:28;;;;;;;23.00;5.00;;;;;;;14.49;86.55;101503.09;5048728;28;20231;-71
2024/01/25 10:15:54;;;;;;;16.23;5.03;;;;;;;14.49;87.83;101510.84;5032905;28;20182;-70
2024/01/25 10:18:19;;;;;;;24.10;5.23;;;;;;;14.54;87.56;101502.88;5065264;28;20201;-70
2024/01/25 10:20:45;;;;;;;17.27;5.03;;;;;;;14.98;85.19;101504.19;5034293;28;20216;-70
2024/01/25 10:23:10;;;;;;;20.60;6.40;;;;;;;14.91;83.46;101508.00;5053358;28;20194;-69
2024/01/25 10:25:37;;;;;;;16.67;5.00;;;;;;;14.35;85.55;101496.00;5032514;28;20252;-70
2024/01/25 10:28:06;;;;;;;18.53;4.93;;;;;;;13.53;90.49;101497.19;5031617;28;20189;-71
2024/01/25 10:30:34;;;;;;;15.10;4.60;;;;;;;12.75;97.23;101507.34;5028499;28;20212;-70
2024/01/25 10:33:00;;;;;;;16.40;4.53;;;;;;;12.30;100.00;101510.88;5043261;28;20197;-70
2024/01/25 10:35:26;;;;;;;17.03;5.13;;;;;;;11.81;100.00;101515.28;5023598;28;20253;-71
2024/01/25 10:37:52;;;;;;;16.53;4.30;;;;;;;11.94;100.00;101517.38;5032890;28;20186;-71
2024/01/25 10:40:20;;;;;;;16.23;5.17;;;;;;;11.91;100.00;101503.75;5025082;28;20190;-71
2024/01/25 10:42:46;;;;;;;20.83;5.40;;;;;;;11.84;100.00;101507.44;5058955;28;20182;-70
2024/01/25 10:45:12;;;;;;;15.03;4.77;;;;;;;11.50;100.00;101514.69;5032356;28;20216;-69
2024/01/25 10:47:40;;;;;;;13.97;4.33;;;;;;;11.28;100.00;101512.00;5031112;28;20304;-72
2024/01/25 10:50:09;;;;;;;15.70;4.47;;;;;;;11.30;100.00;101510.22;5025796;28;20198;-71
2024/01/25 10:52:35;;;;;;;20.30;5.90;;;;;;;10.86;100.00;101512.59;5062422;28;20236;-72
2024/01/25 10:55:01;;;;;;;24.90;5.40;;;;;;;10.66;100.00;101501.19;5064019;28;20186;-72
2024/01/25 10:57:34;;;;;;;17.73;5.00;;;;;;;10.61;100.00;101505.66;5032560;28;20190;-71
2024/01/25 11:00:00;;;;;;;16.03;5.17;;;;;;;10.91;100.00;101510.69;5030708;28;20181;-71
2024/01/25 11:02:25;;;;;;;19.63;5.03;;;;;;;10.92;100.00;101505.47;5053995;28;20251;-71
2024/01/25 11:04:55;;;;;;;19.30;4.43;;;;;;;10.82;100.00;101506.69;5030655;28;20197;-72
2024/01/25 11:07:20;;;;;;;16.63;5.80;;;;;;;11.09;100.00;101504.09;5031345;28;20178;-71
2024/01/25 11:09:50;;;;;;;20.00;5.00;;;;;;;11.20;100.00;101509.72;5031539;28;20189;-71
2024/01/25 11:12:18;;;;;;;20.97;5.47;;;;;;;10.88;100.00;101506.50;5037609;28;20216;-71